Terminal Aerodrome Forecast
Issued by NWS

Home | Current Version | Previous Version | Graphics & Text | Print | Product List | Glossary On
Versions: 1 2 3 4 5 6 7 8 9 10 11 12 13 14 15 16 17 18
926
FTUS43 KMPX 250520
TAFRNH
TAF
KRNH 250520Z 2506/2606 14012KT 6SM -SHRA BR OVC007
     FM250900 17008KT 4SM -SHRA BR OVC007
     FM251530 22010KT P6SM SCT020 SCT100
     FM251700 24014G22KT P6SM OVC050
     FM260200 28012KT P6SM VCSH OVC025=

USA.gov is the U.S. government's official web portal to all federal, state and local government web resources and services.